Time;durP1;ratioP1;P1;durP2;ratioP2;P2;SDS_P1;SDS_P2;PMS_P1;PMS_P2;Temp;Humidity;BMP_temperature;BMP_pressure;BME280_temperature;BME280_humidity;BME280_pressure;Samples;Min_cycle;Max_cycle;Signal;HPM_P1;HPM_P2
2022/06/09 00:00:19;;;;;;;;;2.25;0.50;;;;;18.38;57.02;100962.19;5099864;27;75268;-70
2022/06/09 00:03:18;;;;;;;;;2.00;1.75;;;;;18.38;57.13;100967.59;5102171;27;45775;-71
2022/06/09 00:06:20;;;;;;;;;;;;;;;;;;;;;
2022/06/09 00:09:30;;;;;;;;;1.75;1.75;;;;;18.07;57.55;100932.47;5101126;27;72868;-71
2022/06/09 00:12:09;;;;;;;;;;;;;;;;;;;;;
2022/06/09 00:14:52;;;;;;;;;1.75;1.00;;;;;18.07;56.74;100942.44;5101571;27;71507;-71
2022/06/09 00:20:23;;;;;;;;;;;;;;;;;;;;;
2022/06/09 00:23:20;;;;;;;;;;;;;;;;;;;;;
2022/06/09 00:26:16;;;;;;;;;;;;;;;;;;;;;
2022/06/09 00:32:08;;;;;;;;;;;;;;;;;;;;;
2022/06/09 00:38:22;;;;;;;;;2.50;1.25;;;;;17.86;57.06;100961.63;5086205;27;45455;-71
2022/06/09 00:41:09;;;;;;;;;;;;;;;;;;;;;
2022/06/09 00:44:04;;;;;;;;;;;;;;;;;;;;;
2022/06/09 00:47:02;;;;;;;;;3.00;1.00;;;;;17.83;57.07;100961.81;5088150;27;75314;-71
2022/06/09 00:50:39;;;;;;;;;;;;;;;;;;;;;
2022/06/09 00:56:23;;;;;;;;;2.00;0.75;;;;;18.10;56.94;101004.38;5083484;27;45402;-70
2022/06/09 00:59:08;;;;;;;;;0.75;0.75;;;;;17.87;57.20;100965.22;5101669;27;46339;-71
2022/06/09 01:08:37;;;;;;;;;;;;;;;;;;;;;
2022/06/09 01:11:11;;;;;;;;;2.00;2.00;;;;;18.05;57.11;101028.97;5092489;27;76545;-71
2022/06/09 01:14:29;;;;;;;;;;;;;;;;;;;;;
2022/06/09 01:17:52;;;;;;;;;;;;;;;;;;;;;
2022/06/09 01:21:13;;;;;;;;;;;;;;;;;;;;;
2022/06/09 01:24:28;;;;;;;;;;;;;;;;;;;;;
2022/06/09 01:27:26;;;;;;;;;2.50;0.00;;;;;17.95;57.17;101027.75;5087653;27;72785;-71
2022/06/09 01:30:50;;;;;;;;;4.75;1.50;;;;;17.96;57.31;101037.63;5098236;27;45408;-70
2022/06/09 01:33:52;;;;;;;;;;;;;;;;;;;;;
2022/06/09 01:37:15;;;;;;;;;4.25;2.00;;;;;17.57;56.97;100983.13;5099746;27;75150;-70
2022/06/09 01:40:43;;;;;;;;;;;;;;;;;;;;;
2022/06/09 01:43:42;;;;;;;;;;;;;;;;;;;;;
2022/06/09 01:46:51;;;;;;;;;;;;;;;;;;;;;
2022/06/09 01:49:34;;;;;;;;;4.00;1.50;;;;;17.66;57.63;101018.63;5095320;27;46349;-70
2022/06/09 01:53:01;;;;;;;;;3.75;0.50;;;;;17.61;57.46;101024.31;5074293;27;45327;-71
2022/06/09 01:56:17;;;;;;;;;;;;;;;;;;;;;
2022/06/09 01:59:30;;;;;;;;;1.50;1.50;;;;;17.73;57.36;101049.72;5099759;27;72657;-71
2022/06/09 02:02:52;;;;;;;;;;;;;;;;;;;;;
2022/06/09 02:05:32;;;;;;;;;1.00;1.00;;;;;17.72;57.50;101059.63;5096532;27;45248;-71
2022/06/09 02:08:29;;;;;;;;;;;;;;;;;;;;;
2022/06/09 02:11:32;;;;;;;;;1.50;1.50;;;;;17.57;57.46;101038.91;5092275;27;72889;-71
2022/06/09 02:14:07;;;;;;;;;1.75;1.75;;;;;17.44;57.78;101021.69;5100298;27;45412;-70
2022/06/09 02:16:53;;;;;;;;;1.50;1.50;;;;;17.63;57.50;101065.56;5100295;27;45553;-71
2022/06/09 02:19:28;;;;;;;;;;;;;;;;;;;;;
2022/06/09 02:25:39;;;;;;;;;;;;;;;;;;;;;
2022/06/09 02:31:44;;;;;;;;;;;;;;;;;;;;;
2022/06/09 02:34:32;;;;;;;;;;;;;;;;;;;;;
2022/06/09 02:43:59;;;;;;;;;;;;;;;;;;;;;
2022/06/09 02:50:12;;;;;;;;;;;;;;;;;;;;;
2022/06/09 02:52:51;;;;;;;;;2.50;1.50;;;;;17.43;58.18;101065.84;5100778;27;72804;-71
2022/06/09 02:55:50;;;;;;;;;;;;;;;;;;;;;
2022/06/09 03:01:16;;;;;;;;;2.25;1.25;;;;;17.42;57.77;101073.03;5083007;27;46899;-70
2022/06/09 03:07:31;;;;;;;;;;;;;;;;;;;;;
2022/06/09 03:09:51;;;;;;;;;1.50;1.50;;;;;17.39;57.83;101065.09;5097939;27;45396;-71
2022/06/09 03:12:26;;;;;;;;;3.25;1.50;;;;;17.49;58.16;101087.94;5100957;27;45334;-71
2022/06/09 03:15:10;;;;;;;;;;;;;;;;;;;;;
2022/06/09 03:18:19;;;;;;;;;3.25;1.50;;;;;17.12;57.72;101019.81;5102347;27;67710;-70
2022/06/09 03:23:51;;;;;;;;;;;;;;;;;;;;;
2022/06/09 03:26:36;;;;;;;;;2.00;1.00;;;;;17.38;58.05;101072.34;5102119;27;72989;-70
2022/06/09 03:29:14;;;;;;;;;;;;;;;;;;;;;
2022/06/09 03:32:01;;;;;;;;;;;;;;;;;;;;;
2022/06/09 03:35:19;;;;;;;;;;;;;;;;;;;;;
2022/06/09 03:37:50;;;;;;;;;2.75;2.75;;;;;17.14;58.25;101039.50;5101707;27;72901;-70
2022/06/09 03:40:31;;;;;;;;;;;;;;;;;;;;;
2022/06/09 03:43:08;;;;;;;;;;;;;;;;;;;;;
2022/06/09 03:45:34;;;;;;;;;3.50;2.00;;;;;17.32;58.28;101093.38;5098504;27;76611;-70
2022/06/09 03:48:35;;;;;;;;;;;;;;;;;;;;;
2022/06/09 03:51:17;;;;;;;;;3.25;1.50;;;;;17.07;58.25;101062.34;5094993;27;67863;-71
2022/06/09 03:54:02;;;;;;;;;;;;;;;;;;;;;
2022/06/09 03:57:15;;;;;;;;;;;;;;;;;;;;;
2022/06/09 04:07:43;;;;;;;;;;;;;;;;;;;;;
2022/06/09 04:10:31;;;;;;;;;;;;;;;;;;;;;
2022/06/09 04:17:23;;;;;;;;;;;;;;;;;;;;;
2022/06/09 04:27:46;;;;;;;;;;;;;;;;;;;;;
2022/06/09 04:34:36;;;;;;;;;;;;;;;;;;;;;
2022/06/09 04:41:01;;;;;;;;;;;;;;;;;;;;;
2022/06/09 04:50:22;;;;;;;;;;;;;;;;;;;;;
2022/06/09 05:11:01;;;;;;;;;;;;;;;;;;;;;
2022/06/09 05:14:23;;;;;;;;;;;;;;;;;;;;;
2022/06/09 05:17:26;;;;;;;;;;;;;;;;;;;;;
2022/06/09 05:20:57;;;;;;;;;;;;;;;;;;;;;
2022/06/09 05:27:19;;;;;;;;;;;;;;;;;;;;;
2022/06/09 05:34:08;;;;;;;;;;;;;;;;;;;;;
2022/06/09 05:37:15;;;;;;;;;7.25;4.00;;;;;17.22;59.30;101239.59;5079021;27;45472;-70
2022/06/09 05:46:49;;;;;;;;;;;;;;;;;;;;;
2022/06/09 05:49:54;;;;;;;;;;;;;;;;;;;;;
2022/06/09 05:55:41;;;;;;;;;5.25;3.75;;;;;17.30;58.83;101247.25;5085897;27;46387;-71
2022/06/09 05:58:48;;;;;;;;;;;;;;;;;;;;;
2022/06/09 06:02:08;;;;;;;;;;;;;;;;;;;;;
2022/06/09 06:06:43;;;;;;;;;;;;;;;;;;;;;
2022/06/09 06:07:48;;;;;;;;;3.25;2.75;;;;;17.46;59.32;101273.44;5020750;28;45606;-69
2022/06/09 06:10:14;;;;;;;;;2.00;2.00;;;;;17.29;59.39;101252.75;5099681;27;45507;-70
2022/06/09 06:12:39;;;;;;;;;6.75;3.50;;;;;17.44;58.66;101269.94;5081505;27;45457;-69
2022/06/09 06:15:05;;;;;;;;;4.50;4.00;;;;;17.47;59.27;101281.44;5080097;27;45849;-70
2022/06/09 06:17:34;;;;;;;;;3.50;3.25;;;;;17.44;59.24;101269.94;5099905;27;46338;-70
2022/06/09 06:19:59;;;;;;;;;4.75;3.00;;;;;17.26;58.83;101242.09;5082074;27;45628;-69
2022/06/09 06:22:24;;;;;;;;;4.75;3.75;;;;;17.35;59.02;101263.22;5080853;27;45304;-69
2022/06/09 06:24:50;;;;;;;;;6.50;3.25;;;;;17.49;58.67;101275.97;5100482;27;45244;-70
2022/06/09 06:27:15;;;;;;;;;4.00;2.50;;;;;17.36;58.77;101249.66;5097449;27;45433;-69
2022/06/09 06:29:40;;;;;;;;;5.50;4.50;;;;;17.43;58.57;101266.41;5081012;27;45260;-69
2022/06/09 06:32:06;;;;;;;;;5.25;3.25;;;;;17.47;58.98;101270.66;5099828;27;45342;-69
2022/06/09 06:34:32;;;;;;;;;4.25;4.25;;;;;17.33;58.48;101247.09;5098999;27;45481;-69
2022/06/09 06:36:57;;;;;;;;;6.00;3.00;;;;;17.33;58.69;101255.22;5079175;27;46375;-69
2022/06/09 06:39:23;;;;;;;;;3.50;2.25;;;;;17.56;58.84;101296.31;5098063;27;45432;-69
2022/06/09 06:41:48;;;;;;;;;5.25;3.75;;;;;17.55;58.71;101299.94;5096511;27;45926;-68
2022/06/09 06:44:13;;;;;;;;;7.50;4.75;;;;;17.60;59.12;101308.69;5081610;27;45582;-70
2022/06/09 06:46:39;;;;;;;;;3.50;3.00;;;;;17.51;58.75;101293.84;5081174;27;47840;-70
2022/06/09 06:49:05;;;;;;;;;7.50;3.50;;;;;17.62;58.81;101308.59;5077710;27;45790;-70
2022/06/09 06:51:30;;;;;;;;;3.00;2.50;;;;;17.46;58.96;101289.63;5092945;27;45613;-70
2022/06/09 06:53:56;;;;;;;;;3.00;3.00;;;;;17.57;58.82;101298.03;5096669;27;45754;-69
2022/06/09 06:56:21;;;;;;;;;6.25;5.75;;;;;17.60;59.10;101308.69;5099718;27;46157;-69
2022/06/09 06:58:47;;;;;;;;;6.00;3.00;;;;;17.60;59.43;101305.97;5079593;27;45530;-70
2022/06/09 07:01:13;;;;;;;;;7.25;3.50;;;;;17.40;59.45;101280.03;5095987;27;45883;-70
2022/06/09 07:03:39;;;;;;;;;5.25;3.50;;;;;17.64;59.11;101314.78;5080701;27;45951;-70
2022/06/09 07:06:05;;;;;;;;;5.25;3.75;;;;;17.71;58.92;101327.03;5098842;27;45456;-70
2022/06/09 07:08:31;;;;;;;;;5.50;4.25;;;;;17.62;58.91;101312.16;5100345;27;45440;-70
2022/06/09 07:10:57;;;;;;;;;8.00;3.50;;;;;17.68;59.04;101322.66;5091527;27;45448;-70
2022/06/09 08:17:42;;;;;;;;;7.50;5.50;;;;;18.12;57.70;101367.16;4273863;26;46138;-71
2022/06/09 08:20:08;;;;;;;;;3.50;3.50;;;;;18.27;57.65;101384.38;5008773;28;45292;-72
2022/06/09 08:22:35;;;;;;;;;3.50;3.50;;;;;18.39;57.84;101402.59;4998755;28;45232;-72
2022/06/09 08:25:00;;;;;;;;;4.75;4.00;;;;;18.31;56.33;101391.38;4996097;28;45713;-72
2022/06/09 08:27:25;;;;;;;;;3.00;2.75;;;;;18.37;56.54;101393.72;4980388;28;46956;-72
2022/06/09 08:29:51;;;;;;;;;4.25;3.50;;;;;18.37;56.93;101385.63;4994492;28;45456;-71
2022/06/09 08:32:17;;;;;;;;;6.00;4.00;;;;;18.36;56.50;101388.41;4997951;28;45358;-72
2022/06/09 08:34:42;;;;;;;;;2.50;2.50;;;;;18.51;55.69;101415.47;4998340;28;45581;-72
2022/06/09 08:37:08;;;;;;;;;10.00;4.00;;;;;18.57;55.97;101414.25;4997876;28;45346;-72
2022/06/09 08:39:33;;;;;;;;;4.00;4.00;;;;;18.60;56.79;101421.34;4996366;28;45421;-72
2022/06/09 08:42:17;;;;;;;;;7.00;5.00;;;;;18.63;56.36;101423.88;4995759;28;45493;-72
2022/06/09 08:44:53;;;;;;;;;3.50;3.50;;;;;18.61;56.09;101412.25;4996466;28;45667;-71
2022/06/09 08:47:33;;;;;;;;;3.00;3.00;;;;;18.67;55.24;101418.19;4979968;28;47176;-72
2022/06/09 08:50:10;;;;;;;;;3.75;3.50;;;;;18.60;55.49;101397.00;4977049;27;45267;-72
2022/06/09 08:52:56;;;;;;;;;3.50;3.00;;;;;18.75;55.83;101411.50;4997261;28;45517;-71
2022/06/09 08:55:27;;;;;;;;;9.00;7.00;;;;;18.71;55.92;101394.56;4997276;28;45327;-72
2022/06/09 08:57:58;;;;;;;;;3.50;3.00;;;;;18.78;55.36;101389.69;4997946;28;45379;-72
2022/06/09 09:00:28;;;;;;;;;5.50;3.50;;;;;18.83;55.18;101396.59;4979370;28;45386;-71
2022/06/09 09:03:01;;;;;;;;;4.25;3.00;;;;;18.85;54.76;101396.53;4983292;28;45359;-71
2022/06/09 09:05:35;;;;;;;;;3.25;3.25;;;;;18.96;54.67;101417.53;4969855;28;45964;-72
2022/06/09 09:08:03;;;;;;;;;4.25;3.00;;;;;18.82;54.58;101384.00;4988677;28;47090;-72
2022/06/09 09:10:40;;;;;;;;;2.00;2.00;;;;;18.89;53.91;101389.97;4986475;28;45594;-71
2022/06/09 09:13:20;;;;;;;;;3.00;3.00;;;;;18.95;54.30;101391.47;4981991;28;45485;-71
2022/06/09 09:15:52;;;;;;;;;3.50;2.50;;;;;18.92;54.90;101383.53;4996829;28;45360;-72
2022/06/09 09:18:42;;;;;;;;;6.25;4.00;;;;;19.06;54.56;101397.09;4992905;28;45581;-72
2022/06/09 09:21:38;;;;;;;;;2.75;2.75;;;;;19.10;54.01;101401.41;4979870;28;45347;-72
2022/06/09 09:24:30;;;;;;;;;3.25;3.00;;;;;19.11;53.88;101404.97;4978705;28;45253;-72
2022/06/09 09:27:33;;;;;;;;;2.25;2.25;;;;;19.17;54.66;101408.19;4991903;28;45232;-71
2022/06/09 09:30:04;;;;;;;;;3.00;2.25;;;;;19.14;54.26;101392.13;4979682;28;47429;-72
2022/06/09 09:32:40;;;;;;;;;4.25;3.00;;;;;19.14;53.78;101400.25;4978209;28;45548;-72
2022/06/09 09:35:12;;;;;;;;;4.75;3.00;;;;;19.14;53.83;101396.69;4997514;28;45501;-71
2022/06/09 09:37:46;;;;;;;;;2.75;2.25;;;;;19.11;53.75;101394.13;4997399;28;45453;-72
2022/06/09 09:40:11;;;;;;;;;3.00;3.00;;;;;19.26;53.92;101417.59;4996351;28;45529;-72
2022/06/09 09:42:42;;;;;;;;;2.75;2.75;;;;;19.24;53.49;101412.31;4996059;28;45326;-72
2022/06/09 09:45:10;;;;;;;;;4.00;3.00;;;;;19.28;53.35;101417.50;4994219;28;45480;-72
2022/06/09 09:47:57;;;;;;;;;3.25;2.25;;;;;19.29;53.44;101409.31;4979356;28;45297;-72
2022/06/09 09:50:36;;;;;;;;;4.00;3.00;;;;;19.24;54.28;101403.28;4994463;28;47050;-71
2022/06/09 09:53:19;;;;;;;;;6.00;2.00;;;;;19.36;52.86;101407.13;4975180;28;45559;-72
2022/06/09 09:55:55;;;;;;;;;2.00;2.00;;;;;19.43;52.87;101422.06;4995259;28;45513;-71
2022/06/09 09:58:20;;;;;;;;;2.50;1.75;;;;;19.48;53.01;101419.06;4978440;28;45982;-72
2022/06/09 10:00:53;;;;;;;;;4.00;2.75;;;;;19.50;52.68;101417.16;4979257;28;46203;-73
2022/06/09 10:08:35;;;;;;;;;3.75;3.00;;;;;19.48;52.06;101409.13;4992592;28;45375;-72
2022/06/09 10:09:26;;;;;;;;;2.00;2.00;;;;;19.56;51.68;101420.38;4985228;28;45404;-72
2022/06/09 10:11:57;;;;;;;;;2.00;2.00;;;;;19.52;52.51;101412.50;5010543;27;46605;-76
2022/06/09 10:14:27;;;;;;;;;3.75;3.00;;;;;19.59;52.43;101439.09;4994226;28;45548;-73
2022/06/09 10:16:54;;;;;;;;;3.75;3.00;;;;;19.61;51.99;101436.31;4996337;28;45471;-73
2022/06/09 10:19:24;;;;;;;;;4.00;3.00;;;;;19.52;52.05;101429.63;4999122;28;45507;-73
2022/06/09 10:21:58;;;;;;;;;2.75;2.50;;;;;19.41;51.99;101411.31;4996489;28;46197;-73
2022/06/09 10:24:57;;;;;;;;;4.00;3.00;;;;;19.43;51.60;101405.81;4996121;28;45385;-75
2022/06/09 10:27:30;;;;;;;;;1.50;1.00;;;;;19.32;51.36;101403.72;4989628;27;45327;-73
2022/06/09 10:30:11;;;;;;;;;2.00;2.00;;;;;19.61;51.30;101445.34;4994964;27;45307;-75
2022/06/09 10:32:59;;;;;;;;;3.75;2.00;;;;;19.60;50.99;101443.56;4983835;27;47970;-66
2022/06/09 10:35:27;;;;;;;;;2.75;2.00;;;;;19.62;51.12;101449.75;4948812;28;45649;-66
2022/06/09 10:37:58;;;;;;;;;5.00;2.25;;;;;19.57;51.21;101443.75;4993318;27;45515;-67
2022/06/09 10:40:47;;;;;;;;;3.00;2.00;;;;;19.59;51.40;101440.97;4991135;27;45578;-67
2022/06/09 10:43:25;;;;;;;;;2.00;2.00;;;;;19.61;50.88;101441.72;4992599;27;45526;-69
2022/06/09 10:45:58;;;;;;;;;2.25;2.00;;;;;19.62;50.78;101443.50;4996021;27;45530;-67
2022/06/09 10:57:09;;;;;;;;;2.50;2.00;;;;;19.71;51.12;101451.09;4993770;27;45916;-66
2022/06/09 11:00:03;;;;;;;;;1.00;1.00;;;;;19.73;50.57;101445.53;5015000;27;45453;-66
2022/06/09 11:02:31;;;;;;;;;4.00;1.00;;;;;19.74;50.23;101444.59;4981015;28;45489;-66
2022/06/09 11:04:57;;;;;;;;;3.00;2.00;;;;;19.76;50.72;101464.34;5005250;27;45482;-67
2022/06/09 11:07:29;;;;;;;;;2.00;2.00;;;;;19.77;50.26;101456.13;4998016;27;45471;-67
2022/06/09 11:10:13;;;;;;;;;2.75;1.75;;;;;19.80;50.52;101458.66;4980664;27;45458;-67
2022/06/09 11:13:10;;;;;;;;;2.75;2.00;;;;;19.85;51.33;101454.84;4996737;27;46529;-66
2022/06/09 11:16:04;;;;;;;;;3.75;1.00;;;;;19.89;50.03;101462.66;4991841;28;45384;-65
2022/06/09 11:18:43;;;;;;;;;3.00;1.50;;;;;19.94;50.72;101457.84;4960287;28;45606;-66
2022/06/09 11:21:17;;;;;;;;;2.00;2.00;;;;;20.00;50.51;101459.31;4977997;28;46152;-65
2022/06/09 11:24:04;;;;;;;;;3.75;2.25;;;;;20.04;50.56;101465.41;4996523;27;45627;-66
2022/06/09 11:26:32;;;;;;;;;3.00;2.25;;;;;20.06;50.29;101460.78;4983695;27;45500;-65
2022/06/09 11:29:40;;;;;;;;;4.00;3.00;;;;;20.12;49.23;101465.81;5003067;28;45441;-66
2022/06/09 11:32:27;;;;;;;;;1.00;1.00;;;;;20.14;49.45;101466.59;5026860;28;45604;-65
2022/06/09 11:35:04;;;;;;;;;2.25;2.25;;;;;20.15;48.69;101469.22;5016696;27;45447;-66
2022/06/09 11:37:42;;;;;;;;;2.00;2.00;;;;;20.09;48.76;101447.91;5010013;28;46566;-66
2022/06/09 11:40:25;;;;;;;;;4.50;2.00;;;;;20.15;48.11;101449.38;4984768;28;45426;-66
2022/06/09 11:43:03;;;;;;;;;2.25;2.00;;;;;20.20;48.64;101447.25;4992289;28;45269;-66
2022/06/09 11:45:38;;;;;;;;;2.50;1.25;;;;;20.26;48.86;101463.13;4979231;28;45519;-66
2022/06/09 11:48:11;;;;;;;;;2.50;1.00;;;;;20.28;47.92;101466.63;4998356;28;45272;-67
2022/06/09 11:50:41;;;;;;;;;2.50;1.75;;;;;20.28;48.45;101463.03;4999380;28;45515;-66
2022/06/09 11:53:18;;;;;;;;;2.00;2.00;;;;;20.33;48.64;101469.03;4982720;28;45815;-66
2022/06/09 11:56:00;;;;;;;;;2.00;2.00;;;;;20.32;48.28;101468.16;5000427;27;48240;-66
2022/06/09 11:58:38;;;;;;;;;2.00;2.00;;;;;20.38;48.70;101456.09;4995132;28;46354;-66
2022/06/09 12:01:20;;;;;;;;;1.50;1.50;;;;;20.44;48.07;101454.81;4992447;27;45451;-66
2022/06/09 12:03:48;;;;;;;;;4.75;2.50;;;;;20.49;48.41;101460.81;5003188;28;46861;-66
2022/06/09 12:06:23;;;;;;;;;2.00;2.00;;;;;20.51;48.59;101467.91;4981847;28;46454;-66
2022/06/09 12:09:01;;;;;;;;;2.00;0.00;;;;;20.55;47.87;101468.59;4993834;28;45573;-66
2022/06/09 12:11:52;;;;;;;;;3.00;1.25;;;;;20.58;47.20;101472.94;5011316;27;45327;-66
2022/06/09 12:14:32;;;;;;;;;1.25;1.25;;;;;20.60;46.82;101466.47;4970723;28;45516;-67
2022/06/09 12:17:22;;;;;;;;;3.50;2.00;;;;;20.61;46.86;101470.88;4990711;27;45462;-67
2022/06/09 12:20:00;;;;;;;;;3.00;1.00;;;;;20.64;47.85;101473.44;5010388;28;47109;-67
2022/06/09 12:22:40;;;;;;;;;1.25;1.25;;;;;20.66;47.95;101478.78;4999396;27;45438;-66
2022/06/09 12:25:10;;;;;;;;;2.00;2.00;;;;;20.69;47.79;101482.16;4997376;28;45665;-66
2022/06/09 12:27:36;;;;;;;;;4.75;2.75;;;;;20.70;46.91;101478.50;5003735;28;45502;-66
2022/06/09 12:30:02;;;;;;;;;0.75;0.75;;;;;20.75;46.99;101482.75;4998216;28;45284;-67
2022/06/09 12:32:43;;;;;;;;;3.00;1.50;;;;;20.74;46.71;101476.44;4977064;28;45305;-67
2022/06/09 12:35:30;;;;;;;;;1.00;1.00;;;;;20.79;46.85;101484.31;4998211;28;45560;-67
2022/06/09 12:38:00;;;;;;;;;2.00;2.00;;;;;20.78;47.16;101485.25;4987042;28;45513;-66
2022/06/09 12:40:33;;;;;;;;;1.00;1.00;;;;;20.80;46.54;101483.31;4994217;28;46221;-67
2022/06/09 12:43:18;;;;;;;;;2.75;1.75;;;;;20.84;46.82;101484.88;4990311;28;45673;-67
2022/06/09 12:45:59;;;;;;;;;1.00;1.00;;;;;20.79;45.92;101471.59;4969628;28;45231;-67
2022/06/09 12:48:28;;;;;;;;;1.00;1.00;;;;;20.82;46.71;101481.41;4996621;28;45245;-67
2022/06/09 12:50:53;;;;;;;;;1.25;1.00;;;;;20.92;45.99;101485.25;4997719;28;45390;-67
2022/06/09 12:53:22;;;;;;;;;3.50;2.00;;;;;20.94;45.36;101487.88;4983301;28;45347;-67
2022/06/09 12:55:55;;;;;;;;;1.00;1.00;;;;;20.88;45.83;101475.56;4993559;28;45466;-67
2022/06/09 12:58:26;;;;;;;;;3.00;2.00;;;;;20.92;45.26;101487.97;4993410;28;45425;-67
2022/06/09 13:00:55;;;;;;;;;1.75;1.75;;;;;20.95;45.55;101487.78;4994425;28;46281;-67
2022/06/09 13:03:29;;;;;;;;;3.00;1.00;;;;;20.87;45.32;101484.69;4989960;28;45767;-67
2022/06/09 13:05:55;;;;;;;;;1.25;1.25;;;;;20.95;45.33;101492.31;4991126;28;45480;-67
2022/06/09 13:08:27;;;;;;;;;0.00;0.00;;;;;20.96;44.59;101494.94;4980711;28;45579;-67
2022/06/09 13:11:00;;;;;;;;;1.00;1.00;;;;;20.92;44.64;101487.97;4995964;28;46351;-68
2022/06/09 13:13:35;;;;;;;;;2.00;2.00;;;;;20.94;45.49;101491.47;4996905;28;45253;-67
2022/06/09 13:16:14;;;;;;;;;2.75;1.50;;;;;20.95;44.65;101479.66;4996130;28;45296;-67
2022/06/09 13:18:44;;;;;;;;;1.00;1.00;;;;;21.05;44.50;101494.38;4997698;28;45418;-68
2022/06/09 13:21:26;;;;;;;;;1.00;1.00;;;;;21.02;44.49;101491.84;5030818;28;47073;-67
2022/06/09 13:24:01;;;;;;;;;1.50;1.25;;;;;21.01;43.89;101500.94;4996781;28;46297;-67
2022/06/09 13:26:36;;;;;;;;;1.25;1.25;;;;;20.93;43.45;101476.13;4995588;28;45543;-67
2022/06/09 13:29:08;;;;;;;;;1.00;1.00;;;;;21.12;43.95;101504.81;4990281;28;45293;-67
2022/06/09 13:31:36;;;;;;;;;1.00;1.00;;;;;21.13;43.58;101502.00;4982571;28;48651;-67
2022/06/09 13:34:04;;;;;;;;;0.50;0.00;;;;;21.17;43.36;101508.13;4997798;27;45495;-67
2022/06/09 13:36:43;;;;;;;;;3.00;0.75;;;;;21.15;43.37;101497.34;4999647;28;45465;-67
2022/06/09 13:39:24;;;;;;;;;1.00;1.00;;;;;21.20;43.87;101505.19;4992177;28;45457;-67
2022/06/09 13:41:51;;;;;;;;;2.00;1.00;;;;;21.14;43.14;101500.16;4999202;28;45819;-67
2022/06/09 13:44:22;;;;;;;;;2.25;0.75;;;;;21.24;43.71;101509.44;4996287;27;45486;-67
2022/06/09 13:46:58;;;;;;;;;0.50;0.50;;;;;21.23;43.57;101507.69;4985854;28;45588;-67
2022/06/09 13:49:29;;;;;;;;;0.75;0.75;;;;;21.19;43.35;101496.16;4988299;27;45641;-67
2022/06/09 13:51:54;;;;;;;;;2.00;1.00;;;;;21.29;42.71;101512.72;4980724;28;47262;-67
2022/06/09 13:54:40;;;;;;;;;1.00;1.00;;;;;21.28;42.97;101519.13;4980063;28;45338;-67
2022/06/09 13:57:17;;;;;;;;;1.00;1.00;;;;;21.26;42.78;101512.94;4996780;28;47080;-67
2022/06/09 13:59:42;;;;;;;;;1.00;1.00;;;;;21.16;42.47;101488.22;4980838;27;45570;-67
2022/06/09 14:02:15;;;;;;;;;0.00;0.00;;;;;21.16;42.64;101488.22;4981236;28;47092;-67
2022/06/09 14:04:41;;;;;;;;;4.50;2.00;;;;;21.21;42.36;101499.66;4976331;28;45468;-67
2022/06/09 14:07:08;;;;;;;;;2.25;1.25;;;;;21.24;42.38;101499.44;5001505;28;45398;-67
2022/06/09 14:09:34;;;;;;;;;2.50;1.00;;;;;21.35;42.92;101512.34;4999977;27;45450;-67
2022/06/09 14:11:59;;;;;;;;;1.00;1.00;;;;;21.37;42.96;101507.69;5001090;28;47033;-67
2022/06/09 14:14:24;;;;;;;;;1.00;0.75;;;;;21.36;42.71;101513.22;5000364;28;45741;-67
2022/06/09 14:16:50;;;;;;;;;2.00;0.75;;;;;21.41;43.21;101516.50;4981361;28;45555;-68
2022/06/09 14:19:17;;;;;;;;;1.00;0.75;;;;;21.44;42.92;101511.72;4981847;28;45396;-67
2022/06/09 14:21:45;;;;;;;;;1.00;1.00;;;;;21.45;42.88;101516.19;4978555;28;47334;-67
2022/06/09 14:24:23;;;;;;;;;2.00;1.00;;;;;21.43;42.59;101518.16;4995266;27;45441;-67
2022/06/09 14:26:51;;;;;;;;;4.00;1.00;;;;;21.49;43.09;101519.59;4975400;27;45577;-67
2022/06/09 14:29:19;;;;;;;;;0.25;0.25;;;;;21.51;42.60;101527.66;4981827;27;45475;-67
2022/06/09 14:31:46;;;;;;;;;0.75;0.75;;;;;21.48;42.10;101517.84;4970582;28;47578;-67
2022/06/09 14:34:14;;;;;;;;;0.00;0.00;;;;;21.52;41.24;101519.41;5004767;28;45471;-67
2022/06/09 14:36:41;;;;;;;;;0.50;0.50;;;;;21.45;42.43;101499.00;5000741;28;45445;-67
2022/06/09 14:39:09;;;;;;;;;0.75;0.75;;;;;21.49;41.83;101508.75;4999944;28;46470;-67
2022/06/09 14:41:37;;;;;;;;;0.50;0.00;;;;;21.46;41.49;101498.03;5000163;28;47014;-67
2022/06/09 14:44:04;;;;;;;;;2.00;0.50;;;;;21.54;41.16;101513.88;5008291;28;45743;-67
2022/06/09 14:46:32;;;;;;;;;0.75;0.75;;;;;21.55;41.63;101511.06;4989912;28;45531;-67
2022/06/09 14:48:58;;;;;;;;;1.00;0.00;;;;;21.60;41.52;101524.31;5021280;27;45505;-67
2022/06/09 14:51:25;;;;;;;;;0.00;0.00;;;;;21.63;41.10;101525.00;5008308;28;45916;-67
2022/06/09 14:53:50;;;;;;;;;0.25;0.00;;;;;21.67;41.03;101527.50;4983694;28;46166;-67
2022/06/09 14:56:18;;;;;;;;;0.75;0.00;;;;;21.68;41.53;101535.53;4987447;28;45362;-67
2022/06/09 14:58:44;;;;;;;;;2.00;1.00;;;;;21.54;41.02;101509.31;5077515;27;45570;-67
2022/06/09 15:01:17;;;;;;;;;1.00;0.00;;;;;21.66;40.57;101532.06;5003950;28;45398;-68
2022/06/09 15:03:44;;;;;;;;;0.00;0.00;;;;;21.67;41.47;101541.06;5003315;28;45721;-67
2022/06/09 15:06:12;;;;;;;;;0.00;0.00;;;;;21.63;40.47;101526.81;4992364;28;45512;-67
2022/06/09 15:08:39;;;;;;;;;0.00;0.00;;;;;21.53;40.59;101506.69;4969803;28;45622;-67
2022/06/09 15:11:05;;;;;;;;;2.50;1.00;;;;;21.71;40.90;101531.75;5003447;28;45839;-67
2022/06/09 15:13:31;;;;;;;;;2.00;0.25;;;;;21.76;40.63;101537.75;5023612;28;45370;-67
2022/06/09 15:16:01;;;;;;;;;1.00;0.00;;;;;21.78;40.96;101544.81;4996166;28;45550;-67
2022/06/09 15:18:28;;;;;;;;;1.00;1.00;;;;;21.75;40.84;101542.31;4997964;28;45398;-67
2022/06/09 15:20:55;;;;;;;;;0.00;0.00;;;;;21.83;40.87;101548.13;4991118;28;47978;-67
2022/06/09 15:23:21;;;;;;;;;1.00;1.00;;;;;21.86;41.11;101544.31;4970251;28;45453;-68
2022/06/09 15:25:47;;;;;;;;;0.00;0.00;;;;;21.78;40.52;101523.06;4977670;28;45256;-67
2022/06/09 15:28:15;;;;;;;;;1.25;1.00;;;;;21.96;40.00;101559.03;4977950;28;45985;-67
2022/06/09 15:30:40;;;;;;;;;1.00;0.00;;;;;21.93;40.16;101536.63;4996473;28;45826;-67
2022/06/09 15:33:07;;;;;;;;;1.00;1.00;;;;;22.02;40.25;101558.63;4993287;28;45350;-68
2022/06/09 15:35:32;;;;;;;;;1.00;1.00;;;;;22.08;40.88;101551.88;4997034;28;45475;-67
2022/06/09 15:37:59;;;;;;;;;3.25;1.25;;;;;22.11;40.51;101557.09;4998758;28;45399;-67
2022/06/09 15:40:28;;;;;;;;;1.00;1.00;;;;;22.06;40.15;101547.53;4985282;28;47371;-67
2022/06/09 15:42:55;;;;;;;;;0.75;0.50;;;;;22.15;40.67;101571.34;4997487;28;45451;-67
2022/06/09 15:45:22;;;;;;;;;3.00;1.00;;;;;21.95;40.87;101538.28;4994205;27;45335;-68
2022/06/09 15:47:47;;;;;;;;;3.00;1.00;;;;;22.05;40.95;101553.94;5003134;27;45519;-67
2022/06/09 15:50:16;;;;;;;;;2.50;1.75;;;;;22.04;41.36;101547.63;4995579;27;45562;-68
2022/06/09 15:52:42;;;;;;;;;0.25;0.00;;;;;22.13;40.98;101557.88;4979373;28;45429;-67
2022/06/09 15:55:08;;;;;;;;;1.00;1.00;;;;;21.91;41.01;101524.97;4997856;28;45474;-67
2022/06/09 15:57:35;;;;;;;;;1.00;1.00;;;;;22.06;41.24;101542.97;4979156;28;45456;-67
2022/06/09 16:00:00;;;;;;;;;0.00;0.00;;;;;22.15;41.01;101563.19;4970803;28;48148;-68
2022/06/09 16:02:26;;;;;;;;;1.00;1.00;;;;;22.21;40.45;101566.38;4974771;28;45470;-68
2022/06/09 16:04:51;;;;;;;;;1.00;1.00;;;;;21.91;40.51;101517.69;4983056;27;45782;-68
2022/06/09 16:07:21;;;;;;;;;2.00;1.00;;;;;21.97;40.93;101530.88;4994915;27;45330;-68
2022/06/09 16:09:47;;;;;;;;;2.00;1.00;;;;;22.18;41.25;101569.28;4973429;28;47351;-70
2022/06/09 16:12:14;;;;;;;;;3.00;2.00;;;;;22.13;41.21;101559.72;4994865;28;45827;-69
2022/06/09 16:14:40;;;;;;;;;2.00;2.00;;;;;22.06;41.35;101551.13;4995928;28;46545;-67
2022/06/09 16:17:05;;;;;;;;;3.75;2.00;;;;;22.23;40.94;101581.72;4994772;27;45430;-67
2022/06/09 16:19:31;;;;;;;;;2.00;1.00;;;;;22.15;41.42;101564.09;4991441;27;47512;-68
2022/06/09 16:21:57;;;;;;;;;3.00;1.75;;;;;22.15;41.82;101574.97;4989485;27;45857;-68
2022/06/09 16:24:22;;;;;;;;;1.50;1.50;;;;;22.19;41.08;101567.47;4998101;28;45577;-68
2022/06/09 16:26:48;;;;;;;;;1.75;1.25;;;;;22.16;41.56;101560.38;5014924;28;45908;-69
2022/06/09 16:29:13;;;;;;;;;1.00;1.00;;;;;22.21;41.36;101574.53;4995881;27;45361;-66
2022/06/09 16:31:39;;;;;;;;;2.00;1.00;;;;;22.21;41.62;101571.81;4996618;27;45296;-67
2022/06/09 16:34:05;;;;;;;;;1.25;1.25;;;;;22.23;41.33;101571.72;4980042;28;45414;-67
2022/06/09 16:36:32;;;;;;;;;2.50;1.00;;;;;22.24;41.72;101569.88;4996462;27;45641;-69
2022/06/09 16:38:57;;;;;;;;;1.25;1.25;;;;;21.99;41.67;101536.22;4994686;28;46255;-67
2022/06/09 16:41:23;;;;;;;;;8.00;5.50;;;;;22.18;41.31;101563.84;4996376;28;45563;-67
2022/06/09 16:43:49;;;;;;;;;3.75;2.25;;;;;22.03;41.62;101535.00;4996693;28;45467;-67